MHX weather

Manihiki Island Airport
Manihiki Island, Cook Islands

Public forecast

Using degrees Celsius for public forecast. Weather courtesy of forecast.io.

METAR (pilot weather report)

Retrieved 2019/09/16 03:00 UTC (37 minutes ago):

NCMH 160300Z AUTO 11006KT //// ////// 30/24 Q1011

TAF (pilot weather forecast)

Forecast is more than 12 hours old.

Closest forecast is Tongareva Airport, 193.8 nm (359.0 km) ENE. Retrieved 2018/02/21 16:17 UTC (2 years ago):

TAF NCPY 211518Z 2116/2205 06012KT 9999 SCT018 BKN100 PROB40 TEMPO 2116/2205 3000 TSRA BKN015 FEW018CB